sensor_id;sensor_type;location;lat;lon;timestamp;pressure;altitude;pressure_sealevel;temperature;humidity
83264;BME280;73156;50.988;11.034;2023-10-08T15:56:11;100380.44;;;20.55;45.52
83264;BME280;73156;50.988;11.034;2023-10-08T15:58:36;100386.00;;;20.55;45.28
83264;BME280;73156;50.988;11.034;2023-10-08T16:01:02;100394.41;;;20.55;44.73
83264;BME280;73156;50.988;11.034;2023-10-08T16:03:27;100397.56;;;20.58;44.93
83264;BME280;73156;50.988;11.034;2023-10-08T16:05:53;100408.78;;;20.70;45.41
83264;BME280;73156;50.988;11.034;2023-10-08T16:08:20;100399.56;;;20.81;44.87
83264;BME280;73156;50.988;11.034;2023-10-08T16:10:45;100406.06;;;21.04;45.07
83264;BME280;73156;50.988;11.034;2023-10-08T16:13:10;100372.81;;;21.08;44.28
83264;BME280;73156;50.988;11.034;2023-10-08T16:15:36;100388.03;;;21.35;44.65
83264;BME280;73156;50.988;11.034;2023-10-08T16:18:01;100402.47;;;21.55;43.36
83264;BME280;73156;50.988;11.034;2023-10-08T16:20:29;100406.03;;;21.73;42.95
83264;BME280;73156;50.988;11.034;2023-10-08T16:22:56;100409.75;;;21.90;42.55
83264;BME280;73156;50.988;11.034;2023-10-08T16:25:21;100388.19;;;21.91;42.28
83264;BME280;73156;50.988;11.034;2023-10-08T16:27:49;100411.22;;;22.21;41.83
83264;BME280;73156;50.988;11.034;2023-10-08T16:30:20;100414.84;;;22.33;41.76
83264;BME280;73156;50.988;11.034;2023-10-08T16:32:49;100392.56;;;22.43;41.51
83264;BME280;73156;50.988;11.034;2023-10-08T16:35:14;100388.06;;;22.54;41.26
83264;BME280;73156;50.988;11.034;2023-10-08T16:37:41;100393.31;;;22.67;40.95
83264;BME280;73156;50.988;11.034;2023-10-08T16:40:08;100381.69;;;22.75;40.73
83264;BME280;73156;50.988;11.034;2023-10-08T16:42:34;100382.28;;;22.77;40.65
83264;BME280;73156;50.988;11.034;2023-10-08T16:45:01;100383.97;;;22.78;40.44
83264;BME280;73156;50.988;11.034;2023-10-08T16:47:26;100388.50;;;22.79;40.75
83264;BME280;73156;50.988;11.034;2023-10-08T16:49:51;100388.66;;;22.89;39.98
83264;BME280;73156;50.988;11.034;2023-10-08T16:54:41;100390.94;;;23.08;39.70
83264;BME280;73156;50.988;11.034;2023-10-08T16:57:07;100388.41;;;23.07;40.03
83264;BME280;73156;50.988;11.034;2023-10-08T16:59:32;100383.03;;;23.05;40.48
83264;BME280;73156;50.988;11.034;2023-10-08T17:02:02;100374.78;;;22.99;40.15
83264;BME280;73156;50.988;11.034;2023-10-08T17:04:28;100358.03;;;23.04;39.40
83264;BME280;73156;50.988;11.034;2023-10-08T17:06:53;100344.00;;;23.04;39.80
83264;BME280;73156;50.988;11.034;2023-10-08T17:09:19;100285.66;;;22.68;39.73
83264;BME280;73156;50.988;11.034;2023-10-08T17:11:46;100347.22;;;23.12;39.58
83264;BME280;73156;50.988;11.034;2023-10-08T17:14:15;100354.81;;;23.12;39.73
83264;BME280;73156;50.988;11.034;2023-10-08T17:16:44;100358.81;;;22.99;39.97
83264;BME280;73156;50.988;11.034;2023-10-08T17:21:35;100343.75;;;22.72;40.71
83264;BME280;73156;50.988;11.034;2023-10-08T17:24:00;100368.44;;;22.87;40.29
83264;BME280;73156;50.988;11.034;2023-10-08T17:26:26;100372.75;;;22.94;40.96
83264;BME280;73156;50.988;11.034;2023-10-08T17:28:51;100339.94;;;22.78;40.33
83264;BME280;73156;50.988;11.034;2023-10-08T17:31:16;100357.44;;;23.02;40.08
83264;BME280;73156;50.988;11.034;2023-10-08T17:33:42;100359.06;;;23.14;39.76
83264;BME280;73156;50.988;11.034;2023-10-08T17:36:09;100372.69;;;23.22;39.57
83264;BME280;73156;50.988;11.034;2023-10-08T17:38:34;100340.53;;;23.13;39.47
83264;BME280;73156;50.988;11.034;2023-10-08T17:41:01;100359.63;;;23.33;39.29
83264;BME280;73156;50.988;11.034;2023-10-08T17:43:26;100357.63;;;23.28;39.44
83264;BME280;73156;50.988;11.034;2023-10-08T17:45:52;100355.38;;;23.30;39.19
83264;BME280;73156;50.988;11.034;2023-10-08T17:48:18;100363.50;;;23.27;39.30
83264;BME280;73156;50.988;11.034;2023-10-08T17:50:44;100355.19;;;23.37;39.06
83264;BME280;73156;50.988;11.034;2023-10-08T17:53:09;100344.50;;;23.34;39.37
83264;BME280;73156;50.988;11.034;2023-10-08T17:55:35;100335.81;;;23.35;38.96
83264;BME280;73156;50.988;11.034;2023-10-08T17:58:01;100333.53;;;23.32;39.34
83264;BME280;73156;50.988;11.034;2023-10-08T18:00:28;100337.50;;;23.36;39.19
83264;BME280;73156;50.988;11.034;2023-10-08T18:02:56;100335.28;;;23.38;38.86
83264;BME280;73156;50.988;11.034;2023-10-08T18:05:22;100362.34;;;23.44;38.78
83264;BME280;73156;50.988;11.034;2023-10-08T18:07:52;100359.00;;;23.47;38.98
83264;BME280;73156;50.988;11.034;2023-10-08T18:10:20;100374.44;;;23.45;38.76
83264;BME280;73156;50.988;11.034;2023-10-08T18:12:48;100343.13;;;23.36;38.70
83264;BME280;73156;50.988;11.034;2023-10-08T18:15:15;100348.03;;;23.46;38.66
83264;BME280;73156;50.988;11.034;2023-10-08T18:17:43;100305.03;;;23.45;39.09
83264;BME280;73156;50.988;11.034;2023-10-08T18:20:10;100287.88;;;23.42;38.76
83264;BME280;73156;50.988;11.034;2023-10-08T18:22:39;100300.22;;;23.41;39.00
83264;BME280;73156;50.988;11.034;2023-10-08T18:25:06;100306.16;;;23.44;38.88
83264;BME280;73156;50.988;11.034;2023-10-08T18:27:35;100313.28;;;23.52;38.59
83264;BME280;73156;50.988;11.034;2023-10-08T18:30:01;100329.53;;;23.50;38.87
83264;BME280;73156;50.988;11.034;2023-10-08T18:32:30;100338.63;;;23.57;39.05
83264;BME280;73156;50.988;11.034;2023-10-08T18:34:56;100326.34;;;23.41;38.76
83264;BME280;73156;50.988;11.034;2023-10-08T18:37:22;100339.91;;;23.49;38.82
83264;BME280;73156;50.988;11.034;2023-10-08T18:39:47;100324.78;;;23.50;39.14
83264;BME280;73156;50.988;11.034;2023-10-08T18:42:15;100317.19;;;23.51;39.06
83264;BME280;73156;50.988;11.034;2023-10-08T18:44:40;100323.66;;;23.51;38.77
83264;BME280;73156;50.988;11.034;2023-10-08T18:47:06;100300.69;;;23.54;38.67
83264;BME280;73156;50.988;11.034;2023-10-08T18:49:31;100305.84;;;23.62;39.12
83264;BME280;73156;50.988;11.034;2023-10-08T18:51:57;100306.75;;;23.68;38.89
83264;BME280;73156;50.988;11.034;2023-10-08T18:54:23;100303.06;;;23.67;38.82
83264;BME280;73156;50.988;11.034;2023-10-08T18:56:50;100287.94;;;23.68;38.59
83264;BME280;73156;50.988;11.034;2023-10-08T18:59:15;100281.75;;;23.71;38.66
83264;BME280;73156;50.988;11.034;2023-10-08T19:01:41;100280.06;;;23.70;38.88
83264;BME280;73156;50.988;11.034;2023-10-08T19:04:08;100249.31;;;23.59;38.91
83264;BME280;73156;50.988;11.034;2023-10-08T19:06:34;100266.03;;;23.70;38.69
83264;BME280;73156;50.988;11.034;2023-10-08T19:09:01;100243.56;;;23.70;38.49
83264;BME280;73156;50.988;11.034;2023-10-08T19:11:27;100249.16;;;23.70;38.42
83264;BME280;73156;50.988;11.034;2023-10-08T19:13:53;100231.44;;;23.70;38.65
83264;BME280;73156;50.988;11.034;2023-10-08T19:16:18;100225.56;;;23.71;38.72
83264;BME280;73156;50.988;11.034;2023-10-08T19:18:44;100212.69;;;23.75;38.61
83264;BME280;73156;50.988;11.034;2023-10-08T19:21:15;100213.81;;;23.74;38.75
83264;BME280;73156;50.988;11.034;2023-10-08T19:23:42;100199.97;;;23.68;38.84
83264;BME280;73156;50.988;11.034;2023-10-08T19:26:09;100219.38;;;23.69;38.59
83264;BME280;73156;50.988;11.034;2023-10-08T19:28:36;100184.88;;;23.47;38.86
83264;BME280;73156;50.988;11.034;2023-10-08T19:31:08;100222.56;;;23.78;38.35
83264;BME280;73156;50.988;11.034;2023-10-08T19:33:36;100219.50;;;23.79;38.67
83264;BME280;73156;50.988;11.034;2023-10-08T19:36:01;100226.00;;;23.58;39.15
83264;BME280;73156;50.988;11.034;2023-10-08T19:38:28;100224.25;;;23.52;39.30
83264;BME280;73156;50.988;11.034;2023-10-08T19:40:54;100220.34;;;23.32;39.61
83264;BME280;73156;50.988;11.034;2023-10-08T19:43:20;100217.41;;;23.22;39.83
83264;BME280;73156;50.988;11.034;2023-10-08T19:45:45;100216.66;;;23.10;40.14
83264;BME280;73156;50.988;11.034;2023-10-08T19:48:14;100214.72;;;23.10;40.13
83264;BME280;73156;50.988;11.034;2023-10-08T19:50:41;100217.53;;;23.10;40.22
83264;BME280;73156;50.988;11.034;2023-10-08T19:53:07;100216.50;;;23.00;40.36
83264;BME280;73156;50.988;11.034;2023-10-08T19:55:42;100215.94;;;23.19;40.16
83264;BME280;73156;50.988;11.034;2023-10-08T19:58:08;100216.97;;;23.30;40.18
83264;BME280;73156;50.988;11.034;2023-10-08T20:00:34;100220.69;;;23.35;39.97
83264;BME280;73156;50.988;11.034;2023-10-08T20:03:00;100220.13;;;23.38;39.75
83264;BME280;73156;50.988;11.034;2023-10-08T20:05:27;100234.19;;;23.38;39.77
83264;BME280;73156;50.988;11.034;2023-10-08T20:07:53;100231.97;;;23.40;39.96
83264;BME280;73156;50.988;11.034;2023-10-08T20:10:18;100222.41;;;23.41;39.82
83264;BME280;73156;50.988;11.034;2023-10-08T20:12:48;100223.53;;;23.40;39.79
83264;BME280;73156;50.988;11.034;2023-10-08T20:15:17;100209.50;;;23.40;39.96
83264;BME280;73156;50.988;11.034;2023-10-08T20:17:46;100205.56;;;23.41;39.92
83264;BME280;73156;50.988;11.034;2023-10-08T20:20:12;100205.91;;;23.45;39.66
83264;BME280;73156;50.988;11.034;2023-10-08T20:22:42;100169.91;;;23.20;39.69
83264;BME280;73156;50.988;11.034;2023-10-08T20:25:09;100216.03;;;23.46;39.54
83264;BME280;73156;50.988;11.034;2023-10-08T20:27:35;100207.06;;;23.49;39.65
83264;BME280;73156;50.988;11.034;2023-10-08T20:30:02;100203.09;;;23.45;39.98
83264;BME280;73156;50.988;11.034;2023-10-08T20:32:27;100184.78;;;23.42;39.71
83264;BME280;73156;50.988;11.034;2023-10-08T20:34:52;100182.06;;;23.47;40.24
83264;BME280;73156;50.988;11.034;2023-10-08T20:37:17;100166.84;;;23.43;39.59
83264;BME280;73156;50.988;11.034;2023-10-08T20:39:43;100166.84;;;23.43;39.50
83264;BME280;73156;50.988;11.034;2023-10-08T20:42:08;100166.84;;;23.43;39.78
83264;BME280;73156;50.988;11.034;2023-10-08T20:44:33;100161.25;;;23.43;39.89
83264;BME280;73156;50.988;11.034;2023-10-08T20:46:59;100151.06;;;23.37;39.67
83264;BME280;73156;50.988;11.034;2023-10-08T20:49:29;100166.84;;;23.43;39.53
83264;BME280;73156;50.988;11.034;2023-10-08T20:51:55;100132.66;;;23.25;39.76
83264;BME280;73156;50.988;11.034;2023-10-08T20:54:20;100154.75;;;23.43;39.71
83264;BME280;73156;50.988;11.034;2023-10-08T20:56:46;100144.06;;;23.40;40.02
83264;BME280;73156;50.988;11.034;2023-10-08T20:59:11;100133.94;;;23.39;39.87
83264;BME280;73156;50.988;11.034;2023-10-08T21:01:36;100133.69;;;23.40;40.13
83264;BME280;73156;50.988;11.034;2023-10-08T21:04:02;100132.28;;;23.43;39.76
83264;BME280;73156;50.988;11.034;2023-10-08T21:06:27;100128.38;;;23.44;40.27
83264;BME280;73156;50.988;11.034;2023-10-08T21:08:52;100124.59;;;23.33;40.29
83264;BME280;73156;50.988;11.034;2023-10-08T21:11:20;100118.47;;;23.36;40.11
83264;BME280;73156;50.988;11.034;2023-10-08T21:13:45;100116.19;;;23.33;40.05
83264;BME280;73156;50.988;11.034;2023-10-08T21:16:14;100078.63;;;23.18;39.90
83264;BME280;73156;50.988;11.034;2023-10-08T21:18:39;100095.22;;;23.41;39.55
83264;BME280;73156;50.988;11.034;2023-10-08T21:21:05;100095.22;;;23.41;39.43
83264;BME280;73156;50.988;11.034;2023-10-08T21:23:31;100094.38;;;23.40;39.58
83264;BME280;73156;50.988;11.034;2023-10-08T21:25:57;100094.38;;;23.40;39.73
83264;BME280;73156;50.988;11.034;2023-10-08T21:28:23;100093.84;;;23.43;39.44
83264;BME280;73156;50.988;11.034;2023-10-08T21:30:48;100092.97;;;23.43;39.76
83264;BME280;73156;50.988;11.034;2023-10-08T21:33:15;100048.13;;;23.21;39.58
83264;BME280;73156;50.988;11.034;2023-10-08T21:35:40;100085.16;;;23.45;39.59
83264;BME280;73156;50.988;11.034;2023-10-08T21:38:06;100074.47;;;23.47;39.75
83264;BME280;73156;50.988;11.034;2023-10-08T21:40:35;100068.03;;;23.46;39.82
83264;BME280;73156;50.988;11.034;2023-10-08T21:43:01;100064.03;;;23.42;39.63
83264;BME280;73156;50.988;11.034;2023-10-08T21:45:27;100061.53;;;23.41;39.83
83264;BME280;73156;50.988;11.034;2023-10-08T21:47:52;100057.06;;;23.45;39.60
83264;BME280;73156;50.988;11.034;2023-10-08T21:50:19;100055.06;;;23.45;40.04
83264;BME280;73156;50.988;11.034;2023-10-08T21:52:46;100051.22;;;23.51;41.38
83264;BME280;73156;50.988;11.034;2023-10-08T21:55:13;100039.75;;;23.58;40.45
83264;BME280;73156;50.988;11.034;2023-10-08T21:57:41;100044.84;;;23.61;40.14
83264;BME280;73156;50.988;11.034;2023-10-08T22:00:09;99977.97;;;23.26;39.90
83264;BME280;73156;50.988;11.034;2023-10-08T22:02:51;100024.28;;;23.55;39.42
83264;BME280;73156;50.988;11.034;2023-10-08T22:05:22;100033.94;;;23.69;39.81
83264;BME280;73156;50.988;11.034;2023-10-08T22:07:48;100018.50;;;23.72;39.75
83264;BME280;73156;50.988;11.034;2023-10-08T22:10:14;100025.25;;;23.71;39.73
83264;BME280;73156;50.988;11.034;2023-10-08T22:12:42;100023.50;;;23.65;39.54
83264;BME280;73156;50.988;11.034;2023-10-08T22:15:11;100016.66;;;23.51;40.08
83264;BME280;73156;50.988;11.034;2023-10-08T22:17:43;100006.63;;;23.60;40.18
83264;BME280;73156;50.988;11.034;2023-10-08T22:20:15;100000.25;;;23.69;39.71
83264;BME280;73156;50.988;11.034;2023-10-08T22:23:04;99997.19;;;23.76;39.74
83264;BME280;73156;50.988;11.034;2023-10-08T22:25:33;100002.81;;;23.81;39.61
83264;BME280;73156;50.988;11.034;2023-10-08T22:28:02;99980.66;;;23.79;39.74
83264;BME280;73156;50.988;11.034;2023-10-08T22:30:45;99984.88;;;23.82;39.93
